Aérodrome :
LOGIN :

S'inscrire | Disclaimer

   EN    FR    IT 

 










Légende :    VFR   VFR Marginal   IFR   IFR Intensif   IFR Très Intensif
Visi : 
Plafond : 
>= 8 km
>= 3000ft
5 à 8 km
1000 à 3000 ft
1500m à 5 km
500 à 1000 ft
800 à 1500m
200 à 500 ft
< 800m
< 200 ft
Symboles :   Orages  Brouillard  Fortes neiges  Fortes précipitations  Vent > 20 kt
SIGMETs :   Divers  Orages  Givrage  Turbulence  Onde Orograph.  Cendres Volcan.






- Altitude de l'aérodrome : 3 ft
- Code IATA : LWR


EHLW - Leuuwarden Air Base

DERNIER METAR :
  • 150325Z AUTO 02003KT 340V040 9999 FEW061 SCT078 BKN190 18/17 Q1013 BLU

METARs EXPIRÉS :
  • 150255Z AUTO 02002KT 9999 OVC079 18/18 Q1013 BLU
  • 150225Z AUTO 04001KT 9999 OVC077 19/18 Q1014 BLU
  • 150155Z AUTO VRB02KT 9999 FEW062 SCT071 19/18 Q1014 BLU
  • 150125Z AUTO 04004KT 360V090 9999 OVC058 20/18 Q1014 BLU
  • 150055Z AUTO 06004KT 360V120 9999 OVC058 19/18 Q1014 BLU

TAF TAF EHLW
Valide du 15 à 01h jusqu'au 15 à 13h UTC


150033Z 1501/1513 04005KT CAVOK
PROB40
TEMPO 1501/1511 4000 SHRA TSRA FEW020CB BKN030
PROB30 1501/1506 3000 BR MIFG SCT005 BKN007
BECMG 1506/1508 9999 NSW SCT025
TEMPO 1511/1513 VRB15G25KT 3000 SHRA TSRA SCT025CB BKN030
PROB30
TEMPO 1512/1513 VRB20G30KT 1500 TSRAGR BKN020CB



MET'MAP, la Météo Aéronautique d'un coup d'oeil ! - Copyright ORBIFLY Décembre 2007 - Disclaimer

ORBIFLY MET'MAP TEAM :

Programmation & Développement : Alexandra Zaïnal
Sur une idée originale de : Baudouin d'Aumeries
Assistance à la programmation : Marc-Olivier Méhu
Soutien technique & logistique : Manuel Goepfert

Contact : metmap@orbifly.com




SOURCES & CREDITS :

   NOAA